Time;durP1;ratioP1;P1;durP2;ratioP2;P2;SDS_P1;SDS_P2;PMS_P1;PMS_P2;Temp;Humidity;BMP_temperature;BMP_pressure;BME280_temperature;BME280_humidity;BME280_pressure;Samples;Min_cycle;Max_cycle;Signal;HPM_P1;HPM_P2
2023/05/20 00:02:11;;;;;;;;;;;16.90;73.90;;;;;;4944798;29;19958;-97
2023/05/20 00:04:45;;;;;;;;;;;16.90;73.70;;;;;;4944361;29;19953;-96
2023/05/20 00:07:17;;;;;;;;;;;16.90;73.50;;;;;;4955026;28;19906;-96
2023/05/20 00:09:47;;;;;;;;;;;16.90;73.70;;;;;;4943793;29;19915;-96
2023/05/20 00:12:19;;;;;;;;;;;16.90;73.60;;;;;;4961115;29;19938;-96
2023/05/20 00:14:51;;;;;;;;;;;16.90;73.70;;;;;;4944362;29;19911;-96
2023/05/20 00:17:26;;;;;;;;;;;16.90;73.30;;;;;;4961136;29;19918;-96
2023/05/20 00:19:59;;;;;;;;;;;16.90;73.30;;;;;;4944484;29;19910;-96
2023/05/20 00:22:43;;;;;;;;;;;16.90;73.20;;;;;;4961257;28;19915;-96
2023/05/20 00:25:13;;;;;;;;;;;16.90;73.00;;;;;;4928533;29;19941;-96
2023/05/20 00:27:47;;;;;;;;;;;16.90;72.70;;;;;;4948574;28;19918;-96
2023/05/20 00:30:19;;;;;;;;;;;16.90;73.10;;;;;;4944255;29;19914;-96
2023/05/20 00:32:49;;;;;;;;;;;16.90;72.70;;;;;;4960903;28;19915;-96
2023/05/20 00:35:27;;;;;;;;;;;16.90;72.40;;;;;;4957902;28;19918;-96
2023/05/20 00:38:19;;;;;;;;;;;16.90;72.80;;;;;;4938696;29;20011;-96
2023/05/20 00:40:57;;;;;;;;;;;16.90;72.70;;;;;;4923102;29;19915;-96
2023/05/20 00:43:40;;;;;;;;;;;16.90;72.90;;;;;;4934314;29;19934;-96
2023/05/20 00:46:26;;;;;;;;;;;16.90;72.60;;;;;;4941812;29;19915;-96
2023/05/20 00:48:58;;;;;;;;;;;16.90;72.50;;;;;;4921137;29;19903;-96
2023/05/20 00:51:29;;;;;;;;;;;16.90;72.90;;;;;;4902912;29;19920;-96
2023/05/20 00:54:17;;;;;;;;;;;16.90;72.80;;;;;;4902882;29;19896;-97
2023/05/20 00:56:54;;;;;;;;;;;16.90;72.60;;;;;;4903052;29;19920;-96
2023/05/20 00:59:23;;;;;;;;;;;16.90;72.50;;;;;;4884436;29;19954;-96
2023/05/20 01:01:57;;;;;;;;;;;16.90;72.80;;;;;;4902025;29;19975;-96
2023/05/20 01:38:27;;;;;;;;;;;16.60;77.10;;;;;;5700144;23;19931;-96
2023/05/20 02:05:43;;;;;;;;;;;16.40;81.20;;;;;;5259087;23;19927;-96
2023/05/20 02:08:15;;;;;;;;;;;16.30;82.80;;;;;;4965919;29;19929;-96
2023/05/20 02:10:52;;;;;;;;;;;16.30;82.50;;;;;;4965046;29;19907;-96
2023/05/20 02:13:40;;;;;;;;;;;16.30;82.10;;;;;;4982304;28;19965;-96
2023/05/20 02:16:11;;;;;;;;;;;16.30;81.00;;;;;;4982615;28;19921;-96
2023/05/20 02:18:41;;;;;;;;;;;16.30;79.80;;;;;;4976376;29;19910;-96
2023/05/20 02:21:11;;;;;;;;;;;16.30;78.70;;;;;;4965202;29;19911;-96
2023/05/20 02:23:38;;;;;;;;;;;16.30;77.90;;;;;;4964329;28;19906;-96
2023/05/20 02:26:24;;;;;;;;;;;16.30;76.50;;;;;;4980108;29;19918;-96
2023/05/20 02:28:56;;;;;;;;;;;16.30;76.60;;;;;;4965106;29;19918;-96
2023/05/20 02:31:32;;;;;;;;;;;16.40;77.80;;;;;;4964566;29;19970;-96
2023/05/20 02:34:04;;;;;;;;;;;16.40;79.90;;;;;;4961716;29;19905;-96
2023/05/20 02:36:40;;;;;;;;;;;16.40;80.40;;;;;;4965900;29;19913;-96
2023/05/20 02:39:09;;;;;;;;;;;16.30;79.60;;;;;;4965538;29;19899;-96
2023/05/20 03:14:12;;;;;;;;;;;15.90;83.50;;;;;;5519918;23;19917;-96
2023/05/20 03:16:54;;;;;;;;;;;16.00;83.40;;;;;;4981982;29;19978;-96
2023/05/20 03:19:32;;;;;;;;;;;16.00;82.70;;;;;;4964385;29;19957;-96
2023/05/20 03:22:08;;;;;;;;;;;16.00;81.30;;;;;;4964837;29;19914;-96
2023/05/20 03:24:43;;;;;;;;;;;16.00;81.30;;;;;;4964861;29;19918;-96
2023/05/20 03:27:12;;;;;;;;;;;16.00;83.10;;;;;;4961571;28;19978;-96
2023/05/20 03:29:44;;;;;;;;;;;15.90;83.40;;;;;;4945162;29;19918;-96
2023/05/20 03:32:30;;;;;;;;;;;15.90;82.30;;;;;;4981306;28;19925;-96
2023/05/20 03:35:11;;;;;;;;;;;15.90;81.10;;;;;;4964486;29;19910;-96
2023/05/20 03:37:52;;;;;;;;;;;15.90;82.20;;;;;;4964603;29;19919;-96
2023/05/20 03:40:53;;;;;;;;;;;15.90;82.40;;;;;;4980250;28;20001;-96
2023/05/20 03:43:27;;;;;;;;;;;15.90;82.80;;;;;;4959406;29;19919;-96
2023/05/20 03:45:57;;;;;;;;;;;15.80;82.90;;;;;;4940845;28;19895;-96
2023/05/20 03:48:29;;;;;;;;;;;15.80;83.00;;;;;;4944351;29;19970;-96
2023/05/20 03:51:16;;;;;;;;;;;15.80;84.20;;;;;;4945718;29;19915;-96
2023/05/20 03:53:56;;;;;;;;;;;15.80;84.50;;;;;;4961589;28;19910;-96
2023/05/20 03:56:35;;;;;;;;;;;15.80;84.70;;;;;;4962096;29;19906;-96
2023/05/20 03:59:07;;;;;;;;;;;15.70;84.00;;;;;;4945172;28;19919;-96
2023/05/20 04:01:39;;;;;;;;;;;15.80;83.50;;;;;;4925529;29;19915;-96
2023/05/20 04:04:12;;;;;;;;;;;15.80;83.00;;;;;;5489460;23;19911;-96
2023/05/20 04:06:49;;;;;;;;;;;15.90;82.60;;;;;;4943764;29;19929;-96
2023/05/20 04:09:18;;;;;;;;;;;15.90;82.40;;;;;;4944278;29;19921;-96
2023/05/20 04:11:49;;;;;;;;;;;15.90;82.00;;;;;;4943157;29;19942;-96
2023/05/20 04:14:25;;;;;;;;;;;15.90;82.40;;;;;;4943689;29;19906;-96
2023/05/20 04:16:58;;;;;;;;;;;15.90;82.50;;;;;;4944603;29;19919;-96
2023/05/20 04:19:35;;;;;;;;;;;15.90;81.90;;;;;;4960324;28;19899;-96
2023/05/20 04:22:07;;;;;;;;;;;15.90;81.70;;;;;;4944605;29;19918;-96
2023/05/20 04:24:36;;;;;;;;;;;15.80;81.90;;;;;;4943983;29;19911;-96
2023/05/20 04:27:20;;;;;;;;;;;15.80;82.50;;;;;;4958896;29;19955;-96
2023/05/20 04:29:53;;;;;;;;;;;15.80;83.50;;;;;;4943241;29;19919;-96
2023/05/20 04:32:23;;;;;;;;;;;15.70;83.00;;;;;;4943882;28;19895;-96
2023/05/20 04:35:00;;;;;;;;;;;15.60;83.50;;;;;;4943273;29;19902;-96
2023/05/20 04:37:52;;;;;;;;;;;15.70;83.50;;;;;;4939567;29;19915;-96
2023/05/20 04:40:34;;;;;;;;;;;15.70;83.30;;;;;;4959365;28;19914;-96
2023/05/20 04:43:02;;;;;;;;;;;15.70;83.20;;;;;;4941668;29;19966;-96
2023/05/20 04:45:32;;;;;;;;;;;15.80;82.50;;;;;;4924877;29;19911;-96
2023/05/20 04:48:05;;;;;;;;;;;15.80;82.40;;;;;;4941654;29;19906;-96
2023/05/20 04:50:38;;;;;;;;;;;15.80;82.40;;;;;;4940938;29;19930;-96
2023/05/20 04:53:20;;;;;;;;;;;15.90;82.40;;;;;;4937788;29;19899;-96
